createdAt,value
2018-12-03T00:00:25.901Z,100.00
2018-12-03T00:02:54.387Z,100.00
2018-12-03T00:05:21.257Z,100.00
2018-12-03T00:07:48.112Z,100.00
2018-12-03T00:10:14.900Z,100.00
2018-12-03T00:12:41.685Z,100.00
2018-12-03T00:15:08.448Z,100.00
2018-12-03T00:17:35.317Z,100.00
2018-12-03T00:20:02.140Z,100.00
2018-12-03T00:22:28.968Z,100.00
2018-12-03T00:24:55.764Z,100.00
2018-12-03T00:27:22.597Z,100.00
2018-12-03T00:29:49.385Z,100.00
2018-12-03T00:32:16.209Z,100.00
2018-12-03T00:34:43.022Z,100.00
2018-12-03T00:37:09.831Z,100.00
2018-12-03T00:39:36.668Z,100.00
2018-12-03T00:42:03.498Z,100.00
2018-12-03T00:44:30.296Z,100.00
2018-12-03T00:46:57.097Z,100.00
2018-12-03T00:49:23.881Z,100.00
2018-12-03T00:51:50.661Z,100.00
2018-12-03T00:54:17.421Z,100.00
2018-12-03T00:56:44.246Z,100.00
2018-12-03T00:59:10.973Z,100.00
2018-12-03T01:01:37.757Z,100.00
2018-12-03T01:04:04.731Z,100.00
2018-12-03T01:06:31.501Z,100.00
2018-12-03T01:08:58.269Z,100.00
2018-12-03T01:11:25.104Z,100.00
2018-12-03T01:13:51.852Z,100.00
2018-12-03T01:16:18.612Z,100.00
2018-12-03T01:18:45.537Z,100.00
2018-12-03T01:21:12.297Z,100.00
2018-12-03T01:23:39.077Z,100.00
2018-12-03T01:26:05.853Z,100.00
2018-12-03T01:28:32.648Z,100.00
2018-12-03T01:30:59.411Z,100.00
2018-12-03T01:33:26.192Z,100.00
2018-12-03T01:35:52.956Z,100.00
2018-12-03T01:38:19.740Z,100.00
2018-12-03T01:40:46.497Z,100.00
2018-12-03T01:43:13.277Z,100.00
2018-12-03T01:45:40.048Z,100.00
2018-12-03T01:48:06.925Z,100.00
2018-12-03T01:50:33.687Z,100.00
2018-12-03T01:53:00.472Z,100.00
2018-12-03T01:55:27.244Z,100.00
2018-12-03T01:57:54.025Z,100.00
2018-12-03T02:00:20.793Z,100.00
2018-12-03T02:02:47.572Z,100.00
2018-12-03T02:05:14.474Z,100.00
2018-12-03T02:07:41.256Z,100.00
2018-12-03T02:10:14.613Z,100.00
2018-12-03T02:12:41.399Z,100.00
2018-12-03T02:15:11.109Z,100.00
2018-12-03T02:17:37.941Z,100.00
2018-12-03T02:20:07.585Z,100.00
2018-12-03T02:22:34.369Z,100.00
2018-12-03T02:25:01.129Z,100.00
2018-12-03T02:27:27.918Z,100.00
2018-12-03T02:29:54.674Z,100.00
2018-12-03T02:32:21.450Z,100.00
2018-12-03T02:34:48.232Z,100.00
2018-12-03T02:37:14.989Z,100.00
2018-12-03T02:39:41.764Z,100.00
2018-12-03T02:42:08.573Z,100.00
2018-12-03T02:44:35.381Z,100.00
2018-12-03T02:47:02.162Z,100.00
2018-12-03T02:49:28.952Z,100.00
2018-12-03T02:51:55.717Z,100.00
2018-12-03T02:54:22.501Z,100.00
2018-12-03T02:56:49.266Z,100.00
2018-12-03T02:59:16.046Z,100.00
2018-12-03T03:01:42.808Z,100.00
2018-12-03T03:04:09.600Z,100.00
2018-12-03T03:06:36.364Z,100.00
2018-12-03T03:09:04.962Z,100.00
2018-12-03T03:11:31.729Z,100.00
2018-12-03T03:13:58.514Z,100.00
2018-12-03T03:16:25.269Z,100.00
2018-12-03T03:18:52.049Z,100.00
2018-12-03T03:21:18.817Z,100.00
2018-12-03T03:23:45.622Z,100.00
2018-12-03T03:26:12.406Z,100.00
2018-12-03T03:28:39.188Z,100.00
2018-12-03T03:31:05.954Z,100.00
2018-12-03T03:33:32.766Z,100.00
2018-12-03T03:35:59.558Z,100.00
2018-12-03T03:38:26.290Z,100.00
2018-12-03T03:40:53.172Z,100.00
2018-12-03T03:43:19.918Z,100.00
2018-12-03T03:45:46.702Z,100.00
2018-12-03T03:48:13.460Z,100.00
2018-12-03T03:50:40.253Z,100.00
2018-12-03T03:53:07.021Z,100.00
2018-12-03T03:55:33.817Z,100.00
2018-12-03T03:58:00.595Z,100.00
2018-12-03T04:00:27.373Z,100.00
2018-12-03T04:02:54.187Z,100.00
2018-12-03T04:05:20.970Z,100.00
2018-12-03T04:07:47.777Z,100.00
2018-12-03T04:10:14.944Z,100.00
2018-12-03T04:12:42.662Z,100.00
2018-12-03T04:15:10.473Z,100.00
2018-12-03T04:17:37.245Z,100.00
2018-12-03T04:20:12.313Z,100.00
2018-12-03T04:22:39.082Z,100.00
2018-12-03T04:25:07.216Z,100.00
2018-12-03T04:27:34.127Z,100.00
2018-12-03T04:30:00.913Z,100.00
2018-12-03T04:32:27.678Z,100.00
2018-12-03T04:34:54.468Z,100.00
2018-12-03T04:37:21.246Z,100.00
2018-12-03T04:39:48.016Z,100.00
2018-12-03T04:42:14.776Z,100.00
2018-12-03T04:44:41.557Z,100.00
2018-12-03T04:47:08.350Z,100.00
2018-12-03T04:49:35.141Z,100.00
2018-12-03T04:52:01.905Z,100.00
2018-12-03T04:54:28.748Z,100.00
2018-12-03T04:56:55.518Z,100.00
2018-12-03T04:59:22.304Z,100.00
2018-12-03T05:01:49.069Z,100.00
2018-12-03T05:04:15.858Z,100.00
2018-12-03T05:06:42.616Z,100.00
2018-12-03T05:09:09.413Z,100.00
2018-12-03T05:11:36.689Z,100.00
2018-12-03T05:14:03.732Z,100.00
2018-12-03T05:16:30.525Z,100.00
2018-12-03T05:18:57.320Z,100.00
2018-12-03T05:21:24.153Z,100.00
2018-12-03T05:23:50.913Z,100.00
2018-12-03T05:26:17.866Z,100.00
2018-12-03T05:28:44.624Z,100.00
2018-12-03T05:31:11.393Z,100.00
2018-12-03T05:33:38.157Z,100.00
2018-12-03T05:36:05.057Z,100.00
2018-12-03T05:38:31.813Z,100.00
2018-12-03T05:40:58.589Z,100.00
2018-12-03T05:43:25.356Z,100.00
2018-12-03T05:45:52.136Z,100.00
2018-12-03T05:48:18.905Z,100.00
2018-12-03T05:50:45.681Z,100.00
2018-12-03T05:53:12.449Z,100.00
2018-12-03T05:55:39.216Z,100.00
2018-12-03T05:58:05.991Z,100.00
2018-12-03T06:00:32.829Z,100.00
2018-12-03T06:02:59.593Z,100.00
2018-12-03T06:05:26.377Z,100.00
2018-12-03T06:07:53.133Z,100.00
2018-12-03T06:10:20.862Z,100.00
2018-12-03T06:12:47.665Z,100.00
2018-12-03T06:15:15.608Z,100.00
2018-12-03T06:17:42.313Z,100.00
2018-12-03T06:20:13.328Z,100.00
2018-12-03T06:22:40.109Z,100.00
2018-12-03T06:25:09.446Z,100.00
2018-12-03T06:27:36.454Z,100.00
2018-12-03T06:30:03.957Z,100.00
2018-12-03T06:32:30.736Z,100.00
2018-12-03T06:34:57.513Z,100.00
2018-12-03T06:37:24.281Z,100.00
2018-12-03T06:39:51.064Z,100.00
2018-12-03T06:42:17.857Z,100.00
2018-12-03T06:44:44.619Z,100.00
2018-12-03T06:47:11.666Z,100.00
2018-12-03T06:49:38.434Z,100.00
2018-12-03T06:52:05.236Z,100.00
2018-12-03T06:54:32.000Z,100.00
2018-12-03T06:56:58.780Z,100.00
2018-12-03T06:59:25.563Z,100.00
2018-12-03T07:01:52.336Z,100.00
2018-12-03T07:04:19.092Z,100.00
2018-12-03T07:06:45.876Z,100.00
2018-12-03T07:09:12.661Z,100.00
2018-12-03T07:11:39.464Z,100.00
2018-12-03T07:14:06.232Z,100.00
2018-12-03T07:16:33.008Z,100.00
2018-12-03T07:18:59.768Z,100.00
2018-12-03T07:21:26.541Z,100.00
2018-12-03T07:23:53.305Z,100.00
2018-12-03T07:26:20.089Z,100.00
2018-12-03T07:28:46.857Z,100.00
2018-12-03T07:31:13.632Z,100.00
2018-12-03T07:33:40.430Z,100.00
2018-12-03T07:36:07.209Z,100.00
2018-12-03T07:38:33.969Z,100.00
2018-12-03T07:41:00.748Z,100.00
2018-12-03T07:43:27.513Z,100.00
2018-12-03T07:45:54.291Z,100.00
2018-12-03T07:48:21.121Z,100.00
2018-12-03T07:50:47.896Z,100.00
2018-12-03T07:53:14.679Z,100.00
2018-12-03T07:55:41.482Z,100.00
2018-12-03T07:58:11.626Z,100.00
2018-12-03T08:00:44.181Z,100.00
2018-12-03T08:03:10.968Z,100.00
2018-12-03T08:05:37.747Z,100.00
2018-12-03T08:08:05.233Z,100.00
2018-12-03T08:10:31.995Z,100.00
2018-12-03T08:12:58.769Z,100.00
2018-12-03T08:15:25.524Z,100.00
2018-12-03T08:17:55.931Z,100.00
2018-12-03T08:20:26.844Z,100.00
2018-12-03T08:22:56.964Z,100.00
2018-12-03T08:25:24.077Z,100.00
2018-12-03T08:27:50.873Z,100.00
2018-12-03T08:30:17.640Z,100.00
2018-12-03T08:32:44.437Z,100.00
2018-12-03T08:35:12.789Z,100.00
2018-12-03T08:37:39.617Z,100.00
2018-12-03T08:40:10.623Z,100.00
2018-12-03T08:42:43.264Z,100.00
2018-12-03T08:45:10.012Z,100.00
2018-12-03T08:47:36.889Z,100.00
2018-12-03T08:50:08.477Z,100.00
2018-12-03T08:52:35.258Z,100.00
2018-12-03T08:55:02.139Z,100.00
2018-12-03T08:57:28.970Z,100.00
2018-12-03T08:59:55.770Z,100.00
2018-12-03T09:02:22.557Z,100.00
2018-12-03T09:04:51.537Z,100.00
2018-12-03T09:07:18.354Z,100.00
2018-12-03T09:09:45.122Z,100.00
2018-12-03T09:12:11.908Z,100.00
2018-12-03T09:14:38.684Z,100.00
2018-12-03T09:17:05.498Z,100.00
2018-12-03T09:19:32.331Z,100.00
2018-12-03T09:21:59.113Z,100.00
2018-12-03T09:24:25.882Z,100.00
2018-12-03T09:26:52.641Z,100.00
2018-12-03T09:29:19.441Z,100.00
2018-12-03T09:31:46.233Z,100.00
2018-12-03T09:34:13.009Z,100.00
2018-12-03T09:36:39.777Z,100.00
2018-12-03T09:39:12.006Z,100.00
2018-12-03T09:41:39.029Z,100.00
2018-12-03T09:44:06.513Z,100.00
2018-12-03T09:46:33.265Z,100.00
2018-12-03T09:49:00.044Z,100.00
2018-12-03T09:51:32.074Z,100.00
2018-12-03T09:53:59.005Z,100.00
2018-12-03T09:56:32.888Z,100.00
2018-12-03T09:59:00.048Z,100.00
2018-12-03T10:01:26.812Z,100.00
2018-12-03T10:03:53.581Z,100.00
2018-12-03T10:06:20.344Z,100.00
2018-12-03T10:08:47.132Z,100.00
2018-12-03T10:11:13.925Z,100.00
2018-12-03T10:13:40.702Z,100.00
2018-12-03T10:16:07.464Z,100.00
2018-12-03T10:18:34.261Z,100.00
2018-12-03T10:21:01.356Z,100.00
2018-12-03T10:23:28.238Z,100.00
2018-12-03T10:25:56.424Z,100.00
2018-12-03T10:28:23.652Z,100.00
2018-12-03T10:30:51.572Z,100.00
2018-12-03T10:33:22.599Z,100.00
2018-12-03T10:35:49.410Z,100.00
2018-12-03T10:38:20.077Z,100.00
2018-12-03T10:40:55.221Z,100.00
2018-12-03T10:43:22.005Z,100.00
2018-12-03T10:45:48.772Z,100.00
2018-12-03T10:48:15.597Z,100.00
2018-12-03T10:50:42.345Z,100.00
2018-12-03T10:53:08.976Z,100.00
2018-12-03T10:55:43.144Z,100.00
2018-12-03T10:58:13.358Z,100.00
2018-12-03T11:00:45.945Z,100.00
2018-12-03T11:03:13.472Z,100.00
2018-12-03T11:05:46.644Z,100.00
2018-12-03T11:08:18.922Z,100.00
2018-12-03T11:10:45.697Z,100.00
2018-12-03T11:13:12.458Z,100.00
2018-12-03T11:15:39.229Z,100.00
2018-12-03T11:18:06.705Z,100.00
2018-12-03T11:20:33.492Z,100.00
2018-12-03T11:23:00.245Z,100.00
2018-12-03T11:25:29.609Z,100.00
2018-12-03T11:27:57.658Z,100.00
2018-12-03T11:30:24.451Z,100.00
2018-12-03T11:32:51.218Z,100.00
2018-12-03T11:35:23.649Z,100.00
2018-12-03T11:37:51.585Z,100.00
2018-12-03T11:40:28.989Z,100.00
2018-12-03T11:42:55.750Z,100.00
2018-12-03T11:45:22.529Z,100.00
2018-12-03T11:47:49.297Z,100.00
2018-12-03T11:50:16.081Z,100.00
2018-12-03T11:52:42.844Z,100.00
2018-12-03T11:55:09.624Z,100.00
2018-12-03T11:57:36.393Z,100.00
2018-12-03T12:00:03.638Z,100.00
2018-12-03T12:02:30.404Z,100.00
2018-12-03T12:04:57.185Z,99.72
2018-12-03T12:07:23.946Z,100.00
2018-12-03T12:09:50.729Z,99.53
2018-12-03T12:12:17.497Z,97.94
2018-12-03T12:14:44.328Z,98.25
2018-12-03T12:17:11.097Z,98.79
2018-12-03T12:19:37.905Z,98.91
2018-12-03T12:22:05.317Z,96.78
2018-12-03T12:24:32.077Z,96.83
2018-12-03T12:26:58.866Z,96.14
2018-12-03T12:29:25.626Z,95.68
2018-12-03T12:31:52.406Z,95.81
2018-12-03T12:34:19.164Z,95.57
2018-12-03T12:36:45.944Z,96.15
2018-12-03T12:39:12.720Z,97.11
2018-12-03T12:41:40.367Z,98.12
2018-12-03T12:44:08.716Z,100.00
2018-12-03T12:46:36.905Z,100.00
2018-12-03T12:49:04.247Z,100.00
2018-12-03T12:51:31.030Z,100.00
2018-12-03T12:53:57.869Z,100.00
2018-12-03T12:56:24.700Z,100.00
2018-12-03T12:58:51.472Z,100.00
2018-12-03T13:01:18.265Z,100.00
2018-12-03T13:03:45.065Z,100.00
2018-12-03T13:06:11.913Z,100.00
2018-12-03T13:08:38.672Z,100.00
2018-12-03T13:11:06.254Z,100.00
2018-12-03T13:13:33.006Z,100.00
2018-12-03T13:15:59.787Z,100.00
2018-12-03T13:18:26.560Z,100.00
2018-12-03T13:20:53.342Z,100.00
2018-12-03T13:23:20.197Z,100.00
2018-12-03T13:25:46.980Z,100.00
2018-12-03T13:28:13.788Z,100.00
2018-12-03T13:30:40.570Z,100.00
2018-12-03T13:33:07.348Z,100.00
2018-12-03T13:35:34.247Z,100.00
2018-12-03T13:38:01.202Z,100.00
2018-12-03T13:40:27.989Z,100.00
2018-12-03T13:42:54.749Z,100.00
2018-12-03T13:45:23.518Z,100.00
2018-12-03T13:47:51.021Z,100.00
2018-12-03T13:50:17.804Z,100.00
2018-12-03T13:52:44.809Z,100.00
2018-12-03T13:55:15.083Z,100.00
2018-12-03T13:57:41.846Z,100.00
2018-12-03T14:00:18.060Z,100.00
2018-12-03T14:02:48.270Z,100.00
2018-12-03T14:05:15.936Z,100.00
2018-12-03T14:07:46.921Z,100.00
2018-12-03T14:10:46.792Z,100.00
2018-12-03T14:13:30.513Z,100.00
2018-12-03T14:16:06.553Z,100.00
2018-12-03T14:18:36.514Z,100.00
2018-12-03T14:21:11.233Z,100.00
2018-12-03T14:23:38.432Z,100.00
2018-12-03T14:26:05.465Z,100.00
2018-12-03T14:28:32.225Z,100.00
2018-12-03T14:30:59.041Z,100.00
2018-12-03T14:33:25.808Z,100.00
2018-12-03T14:35:52.637Z,100.00
2018-12-03T14:38:19.462Z,100.00
2018-12-03T14:40:46.309Z,100.00
2018-12-03T14:43:13.101Z,100.00
2018-12-03T14:45:39.908Z,100.00
2018-12-03T14:48:06.752Z,100.00
2018-12-03T14:50:33.541Z,100.00
2018-12-03T14:53:00.301Z,99.89
2018-12-03T14:55:27.085Z,100.00
2018-12-03T14:57:53.845Z,100.00
2018-12-03T15:00:20.656Z,100.00
2018-12-03T15:02:47.414Z,99.92
2018-12-03T15:05:14.190Z,99.76
2018-12-03T15:07:41.092Z,99.75
2018-12-03T15:10:08.584Z,98.36
2018-12-03T15:12:35.369Z,98.30
2018-12-03T15:15:02.436Z,97.36
2018-12-03T15:17:29.208Z,96.44
2018-12-03T15:19:55.992Z,96.43
2018-12-03T15:22:22.829Z,95.44
2018-12-03T15:24:49.628Z,96.39
2018-12-03T15:27:16.385Z,96.04
2018-12-03T15:29:43.189Z,94.40
2018-12-03T15:32:09.955Z,93.66
2018-12-03T15:34:36.733Z,94.77
2018-12-03T15:37:03.572Z,94.45
2018-12-03T15:39:30.366Z,93.39
2018-12-03T15:41:57.148Z,94.18
2018-12-03T15:44:23.933Z,94.40
2018-12-03T15:46:50.714Z,95.21
2018-12-03T15:49:17.658Z,95.75
2018-12-03T15:51:44.430Z,94.96
2018-12-03T15:54:11.204Z,94.66
2018-12-03T15:56:38.028Z,94.33
2018-12-03T15:59:04.789Z,94.39
2018-12-03T16:01:31.570Z,95.80
2018-12-03T16:03:58.355Z,95.66
2018-12-03T16:06:25.193Z,96.03
2018-12-03T16:08:51.932Z,96.36
2018-12-03T16:11:18.776Z,95.74
2018-12-03T16:13:45.549Z,96.58
2018-12-03T16:16:12.357Z,96.05
2018-12-03T16:18:40.276Z,96.64
2018-12-03T16:21:07.064Z,97.47
2018-12-03T16:23:33.820Z,97.92
2018-12-03T16:26:00.596Z,98.06
2018-12-03T16:28:27.372Z,98.81
2018-12-03T16:30:54.157Z,99.49
2018-12-03T16:33:20.929Z,99.33
2018-12-03T16:35:47.717Z,100.00
2018-12-03T16:38:15.343Z,99.71
2018-12-03T16:40:42.124Z,100.00
2018-12-03T16:43:08.938Z,100.00
2018-12-03T16:45:35.720Z,100.00
2018-12-03T16:48:02.485Z,100.00
2018-12-03T16:50:29.290Z,100.00
2018-12-03T16:52:56.080Z,100.00
2018-12-03T16:55:22.873Z,100.00
2018-12-03T16:57:49.708Z,100.00
2018-12-03T17:00:16.481Z,100.00
2018-12-03T17:02:43.285Z,100.00
2018-12-03T17:05:10.229Z,100.00
2018-12-03T17:07:37.061Z,100.00
2018-12-03T17:10:13.013Z,100.00
2018-12-03T17:12:39.829Z,100.00
2018-12-03T17:15:08.259Z,100.00
2018-12-03T17:17:35.085Z,100.00
2018-12-03T17:20:02.452Z,100.00
2018-12-03T17:22:52.900Z,100.00
2018-12-03T17:25:22.429Z,100.00
2018-12-03T17:27:49.445Z,100.00
2018-12-03T17:30:16.224Z,100.00
2018-12-03T17:32:43.055Z,100.00
2018-12-03T17:35:10.049Z,100.00
2018-12-03T17:37:36.922Z,100.00
2018-12-03T17:40:06.746Z,100.00
2018-12-03T17:42:33.656Z,100.00
2018-12-03T17:45:00.409Z,100.00
2018-12-03T17:47:27.265Z,100.00
2018-12-03T17:49:54.053Z,100.00
2018-12-03T17:52:20.883Z,100.00
2018-12-03T17:54:47.653Z,100.00
2018-12-03T17:57:14.497Z,100.00
2018-12-03T17:59:41.276Z,100.00
2018-12-03T18:02:08.100Z,100.00
2018-12-03T18:04:34.885Z,100.00
2018-12-03T18:07:01.661Z,100.00
2018-12-03T18:09:28.437Z,100.00
2018-12-03T18:11:55.261Z,100.00
2018-12-03T18:14:22.048Z,100.00
2018-12-03T18:16:48.851Z,100.00
2018-12-03T18:19:15.689Z,100.00
2018-12-03T18:21:42.493Z,100.00
2018-12-03T18:24:09.317Z,100.00
2018-12-03T18:26:36.133Z,100.00
2018-12-03T18:29:02.966Z,100.00
2018-12-03T18:31:29.763Z,100.00
2018-12-03T18:33:56.591Z,100.00
2018-12-03T18:36:23.475Z,100.00
2018-12-03T18:38:50.241Z,100.00
2018-12-03T18:41:17.029Z,100.00
2018-12-03T18:43:43.810Z,100.00
2018-12-03T18:46:10.612Z,100.00
2018-12-03T18:48:37.477Z,100.00
2018-12-03T18:51:04.754Z,100.00
2018-12-03T18:53:31.581Z,99.59
2018-12-03T18:55:58.364Z,98.85
2018-12-03T18:58:35.277Z,97.20
2018-12-03T19:01:01.034Z,97.28
2018-12-03T19:03:27.887Z,96.09
2018-12-03T19:05:54.685Z,96.16
2018-12-03T19:08:21.503Z,96.34
2018-12-03T19:10:48.317Z,95.86
2018-12-03T19:13:15.149Z,94.79
2018-12-03T19:15:41.996Z,95.09
2018-12-03T19:18:08.781Z,95.48
2018-12-03T19:20:36.001Z,94.59
2018-12-03T19:23:02.857Z,95.65
2018-12-03T19:25:29.609Z,95.84
2018-12-03T19:27:56.426Z,96.38
2018-12-03T19:30:23.289Z,97.27
2018-12-03T19:32:50.142Z,98.42
2018-12-03T19:35:16.921Z,97.54
2018-12-03T19:37:43.734Z,97.97
2018-12-03T19:40:10.518Z,97.89
2018-12-03T19:42:37.304Z,97.23
2018-12-03T19:45:05.131Z,95.91
2018-12-03T19:47:31.958Z,95.20
2018-12-03T19:49:58.697Z,94.10
2018-12-03T19:52:25.518Z,94.41
2018-12-03T19:54:52.386Z,93.45
2018-12-03T19:57:22.753Z,92.60
2018-12-03T19:59:51.433Z,91.83
2018-12-03T20:02:18.209Z,92.04
2018-12-03T20:04:51.710Z,92.92
2018-12-03T20:07:18.586Z,92.45
2018-12-03T20:09:45.821Z,92.07
2018-12-03T20:12:12.597Z,92.34
2018-12-03T20:14:39.389Z,93.25
2018-12-03T20:17:06.220Z,91.78
2018-12-03T20:19:32.979Z,93.03
2018-12-03T20:22:00.670Z,93.15
2018-12-03T20:24:27.457Z,91.73
2018-12-03T20:27:12.289Z,91.96
2018-12-03T20:30:06.684Z,91.41
2018-12-03T20:32:43.548Z,92.32
2018-12-03T20:35:15.893Z,93.15
2018-12-03T20:38:05.404Z,93.14
2018-12-03T20:40:54.193Z,92.95
2018-12-03T20:43:23.590Z,93.78
2018-12-03T20:46:00.661Z,96.53
2018-12-03T20:48:34.639Z,97.61
2018-12-03T20:51:10.777Z,98.60
2018-12-03T20:53:42.073Z,99.50
2018-12-03T20:56:08.833Z,100.00
2018-12-03T20:58:35.626Z,100.00
2018-12-03T21:01:02.385Z,100.00
2018-12-03T21:03:29.173Z,100.00
2018-12-03T21:05:56.246Z,100.00
2018-12-03T21:08:23.050Z,100.00
2018-12-03T21:10:49.829Z,100.00
2018-12-03T21:13:17.811Z,100.00
2018-12-03T21:15:44.607Z,100.00
2018-12-03T21:18:11.385Z,100.00
2018-12-03T21:20:43.036Z,100.00
2018-12-03T21:23:09.853Z,100.00
2018-12-03T21:25:36.626Z,100.00
2018-12-03T21:28:03.433Z,100.00
2018-12-03T21:30:30.205Z,100.00
2018-12-03T21:32:56.992Z,99.21
2018-12-03T21:35:23.841Z,99.27
2018-12-03T21:37:50.679Z,99.26
2018-12-03T21:40:17.440Z,98.68
2018-12-03T21:42:44.237Z,98.37
2018-12-03T21:45:11.009Z,98.88
2018-12-03T21:47:37.833Z,99.34
2018-12-03T21:50:07.075Z,100.00
2018-12-03T21:52:31.394Z,100.00
2018-12-03T21:54:58.177Z,100.00
2018-12-03T21:57:24.960Z,100.00
2018-12-03T21:59:56.727Z,100.00
2018-12-03T22:02:23.970Z,100.00
2018-12-03T22:04:45.316Z,100.00
2018-12-03T22:07:12.108Z,100.00
2018-12-03T22:09:38.878Z,100.00
2018-12-03T22:12:05.652Z,100.00
2018-12-03T22:14:32.452Z,100.00
2018-12-03T22:16:59.217Z,100.00
2018-12-03T22:19:25.993Z,100.00
2018-12-03T22:21:52.789Z,99.85
2018-12-03T22:24:19.578Z,100.00
2018-12-03T22:26:46.353Z,99.79
2018-12-03T22:29:13.145Z,100.00
2018-12-03T22:31:39.917Z,98.76
2018-12-03T22:34:06.713Z,99.36
2018-12-03T22:36:33.485Z,99.59
2018-12-03T22:39:00.257Z,99.88
2018-12-03T22:41:27.031Z,98.66
2018-12-03T22:43:53.817Z,98.81
2018-12-03T22:46:20.585Z,98.83
2018-12-03T22:48:47.365Z,98.04
2018-12-03T22:51:14.125Z,97.59
2018-12-03T22:53:40.917Z,97.46
2018-12-03T22:56:07.702Z,97.76
2018-12-03T22:58:34.505Z,98.75
2018-12-03T23:01:06.288Z,100.00
2018-12-03T23:03:33.128Z,99.82
2018-12-03T23:05:59.912Z,100.00
2018-12-03T23:08:26.718Z,100.00
2018-12-03T23:10:53.504Z,100.00
2018-12-03T23:13:20.301Z,100.00
2018-12-03T23:15:47.070Z,100.00
2018-12-03T23:18:13.861Z,100.00
2018-12-03T23:20:40.661Z,100.00
2018-12-03T23:23:07.492Z,100.00
2018-12-03T23:25:34.257Z,100.00
2018-12-03T23:28:01.030Z,100.00
2018-12-03T23:30:27.841Z,99.65
2018-12-03T23:32:54.609Z,100.00
2018-12-03T23:35:21.404Z,99.91
2018-12-03T23:37:48.186Z,99.87
2018-12-03T23:40:14.977Z,99.60
2018-12-03T23:42:41.745Z,99.56
2018-12-03T23:45:08.561Z,99.83
2018-12-03T23:47:35.331Z,99.01
2018-12-03T23:50:02.113Z,99.09
2018-12-03T23:52:28.915Z,98.86
2018-12-03T23:54:55.692Z,99.28
2018-12-03T23:57:22.455Z,98.18
2018-12-03T23:59:49.241Z,98.67
